createdAt,value
2018-04-26T06:28:40.658Z,75.00
2018-04-26T06:48:46.024Z,75.40
2018-04-26T07:50:49.525Z,73.10
2018-04-26T07:53:17.373Z,73.10
2018-04-26T07:55:44.842Z,73.00
2018-04-26T07:58:23.267Z,72.90
2018-04-26T08:03:41.805Z,72.80
2018-04-26T08:06:09.358Z,72.90
2018-04-26T08:08:36.891Z,72.70
2018-04-26T08:19:56.071Z,72.50
2018-04-26T08:39:37.368Z,72.60
2018-04-26T08:51:09.829Z,72.00
2018-04-26T08:53:37.364Z,71.80
2018-04-26T08:56:04.883Z,72.00
2018-04-26T08:58:33.549Z,71.90
2018-04-26T09:01:01.442Z,72.00
2018-04-26T09:03:31.101Z,72.00
2018-04-26T09:11:59.523Z,71.10
2018-04-26T09:14:27.225Z,71.20
2018-04-26T09:16:54.746Z,71.40
2018-04-26T09:19:22.277Z,71.70
2018-04-26T09:21:51.507Z,71.60
2018-04-26T09:24:37.545Z,71.20
2018-04-26T09:27:05.092Z,70.90
2018-04-26T09:29:32.653Z,70.60
2018-04-26T09:32:00.431Z,70.20
2018-04-26T09:34:28.028Z,69.70
2018-04-26T09:36:55.525Z,69.50
2018-04-26T09:39:32.737Z,69.10
2018-04-26T09:48:11.801Z,68.80
2018-04-26T09:50:40.198Z,67.90
2018-04-26T09:53:07.680Z,67.80
2018-04-26T10:12:50.229Z,67.40
2018-04-26T10:15:17.841Z,67.10
2018-04-26T10:17:54.085Z,66.20
2018-04-26T10:23:02.224Z,66.30
2018-04-26T10:34:19.836Z,65.50
2018-04-26T10:36:47.576Z,66.10
2018-04-26T10:39:15.089Z,66.30
2018-04-26T10:41:42.646Z,65.20
2018-04-26T10:44:10.271Z,66.00
2018-04-26T10:46:38.493Z,66.90
2018-04-26T10:49:06.869Z,67.00
2018-04-26T10:51:34.389Z,66.90
2018-04-26T10:54:01.911Z,66.80
2018-04-26T10:56:29.596Z,66.60
2018-04-26T10:58:57.167Z,66.10
2018-04-26T11:01:24.741Z,66.20
2018-04-26T11:16:46.593Z,66.30
2018-04-26T11:19:15.318Z,66.30
2018-04-26T11:21:43.703Z,66.20
2018-04-26T11:24:12.078Z,66.30
2018-04-26T11:26:39.626Z,66.30
2018-04-26T11:29:07.151Z,66.40
2018-04-26T11:31:35.496Z,66.00
2018-04-26T11:34:03.009Z,65.80
2018-04-26T11:36:49.140Z,65.30
2018-04-26T11:39:16.788Z,65.30
2018-04-26T11:41:44.316Z,65.00
2018-04-26T11:44:12.698Z,65.30
2018-04-26T11:46:59.795Z,66.40
2018-04-26T11:49:28.152Z,66.60
2018-04-26T11:51:55.677Z,66.60
2018-04-26T11:54:23.202Z,66.40
2018-04-26T12:02:33.783Z,63.70
2018-04-26T12:05:02.186Z,63.60
2018-04-26T12:07:30.528Z,65.50
2018-04-26T12:09:58.085Z,64.40
2018-04-26T12:12:25.610Z,64.70
2018-04-26T12:14:53.122Z,64.80
2018-04-26T12:17:20.812Z,64.60
2018-04-26T12:19:49.117Z,64.20
2018-04-26T12:22:16.789Z,64.70
2018-04-26T12:24:44.381Z,63.70
2018-04-26T12:35:56.368Z,61.40
2018-04-26T12:38:24.713Z,59.80
2018-04-26T12:40:52.231Z,59.70
2018-04-26T12:43:19.806Z,59.70
2018-04-26T12:45:47.680Z,61.70
2018-04-26T12:48:15.406Z,61.90
2018-04-26T12:56:26.630Z,61.50
2018-04-26T12:58:59.048Z,61.50
2018-04-26T13:01:26.916Z,60.70
2018-04-26T13:03:54.421Z,60.30
2018-04-26T13:06:22.542Z,59.80
2018-04-26T13:08:50.284Z,59.40
2018-04-26T13:22:47.537Z,60.60
2018-04-26T13:25:18.215Z,60.50
2018-04-26T13:27:46.557Z,59.80
2018-04-26T13:30:14.130Z,59.60
2018-04-26T13:41:15.665Z,58.90
2018-04-26T13:43:46.464Z,58.30
2018-04-26T13:46:13.994Z,58.20
2018-04-26T13:48:41.574Z,57.10
2018-04-26T13:51:11.265Z,55.80
2018-04-26T14:07:59.324Z,57.20
2018-04-26T14:10:26.845Z,56.90
2018-04-26T14:12:54.332Z,56.20
2018-04-26T14:33:27.859Z,56.20
2018-04-26T14:35:55.464Z,56.40
2018-04-26T14:38:23.761Z,57.00
2018-04-26T14:46:47.344Z,57.50
2018-04-26T14:49:17.420Z,58.30
2018-04-26T14:51:45.777Z,58.70
2018-04-26T14:54:13.287Z,58.60
2018-04-26T14:56:40.761Z,59.10
2018-04-26T14:59:08.249Z,59.50
2018-04-26T15:01:35.731Z,59.50
2018-04-26T15:04:03.205Z,59.50
2018-04-26T15:06:31.099Z,59.70
2018-04-26T15:08:58.576Z,60.00
2018-04-26T15:11:27.882Z,60.10
2018-04-26T15:13:55.456Z,60.00
2018-04-26T15:16:23.758Z,60.20
2018-04-26T15:18:51.252Z,60.00
2018-04-26T15:33:03.037Z,57.90
2018-04-26T15:35:30.529Z,57.80
2018-04-26T15:38:03.989Z,56.20
2018-04-26T15:40:31.552Z,56.10
2018-04-26T15:42:59.098Z,56.70
2018-04-26T15:45:26.664Z,56.60
2018-04-26T15:51:07.362Z,56.50
2018-04-26T15:53:52.061Z,56.90
2018-04-26T15:56:32.021Z,57.10
2018-04-26T16:31:14.922Z,62.50
2018-04-26T16:33:54.560Z,62.80
2018-04-26T16:36:47.000Z,62.80
2018-04-26T16:53:55.425Z,64.20
2018-04-26T16:56:23.024Z,64.70
2018-04-26T16:58:50.566Z,63.70
2018-04-26T17:01:18.076Z,64.10
2018-04-26T17:03:46.519Z,64.00
2018-04-26T17:06:14.043Z,64.10
2018-04-26T17:08:41.568Z,64.50
2018-04-26T17:11:09.564Z,64.30
2018-04-26T17:13:51.024Z,64.90
2018-04-26T17:16:18.593Z,65.10
2018-04-26T17:18:46.114Z,65.20
2018-04-26T17:21:13.664Z,65.50
2018-04-26T17:23:41.990Z,66.10
2018-04-26T17:26:09.544Z,66.00
2018-04-26T17:28:37.056Z,65.90
2018-04-26T17:31:05.593Z,66.00
2018-04-26T17:33:38.115Z,65.90
2018-04-26T17:36:06.467Z,66.00
2018-04-26T17:38:33.993Z,65.90
2018-04-26T17:41:01.597Z,66.00
2018-04-26T17:43:29.169Z,66.30
2018-04-26T17:45:57.399Z,66.40
2018-04-26T17:48:24.846Z,66.30
2018-04-26T17:50:52.648Z,66.60
2018-04-26T17:53:29.912Z,66.90
2018-04-26T17:55:57.560Z,66.20
2018-04-26T17:58:25.140Z,66.60
2018-04-26T18:00:52.704Z,66.70
2018-04-26T18:03:20.369Z,66.60
2018-04-26T18:05:47.949Z,66.50
2018-04-26T18:08:15.549Z,66.60
2018-04-26T18:10:43.292Z,66.50
2018-04-26T18:13:12.701Z,66.80
2018-04-26T18:15:40.558Z,66.90
2018-04-26T18:21:13.224Z,67.00
2018-04-26T18:23:40.774Z,66.90
2018-04-26T18:26:08.291Z,67.10
2018-04-26T18:28:35.879Z,67.10
2018-04-26T18:31:03.504Z,67.20
2018-04-26T18:33:31.271Z,67.20
2018-04-26T18:35:59.652Z,67.50
2018-04-26T18:38:27.145Z,67.40
2018-04-26T18:40:54.624Z,67.40
2018-04-26T18:43:22.234Z,67.80
2018-04-26T18:45:53.629Z,68.00
2018-04-26T18:48:21.204Z,68.20
2018-04-26T18:50:48.765Z,68.20
2018-04-26T18:53:16.360Z,68.40
2018-04-26T18:55:43.851Z,68.30
2018-04-26T18:58:11.352Z,68.50
2018-04-26T19:00:39.883Z,69.20
2018-04-26T19:03:07.406Z,68.40
2018-04-26T19:05:35.771Z,68.60
2018-04-26T19:08:03.336Z,68.50
2018-04-26T19:10:30.837Z,68.60
2018-04-26T19:12:58.366Z,69.00
2018-04-26T19:15:26.850Z,69.20
2018-04-26T19:17:55.126Z,69.30
2018-04-26T19:20:23.374Z,69.60
2018-04-26T19:22:51.069Z,69.50
2018-04-26T19:25:19.300Z,69.70
2018-04-26T19:27:46.873Z,69.60
2018-04-26T19:30:14.498Z,69.50
2018-04-26T19:32:41.966Z,69.50
2018-04-26T19:38:10.201Z,69.90
2018-04-26T19:40:37.709Z,69.80
2018-04-26T19:43:05.182Z,69.80
2018-04-26T19:45:32.644Z,69.90
2018-04-26T19:50:50.928Z,71.10
2018-04-26T19:53:18.420Z,71.30
2018-04-26T19:55:46.635Z,71.50
2018-04-26T19:58:14.104Z,71.40
2018-04-26T20:00:41.605Z,71.40
2018-04-26T20:03:09.856Z,71.70
2018-04-26T20:05:37.336Z,71.50
2018-04-26T20:08:04.906Z,71.40
2018-04-26T20:10:33.357Z,71.80
2018-04-26T20:18:43.943Z,71.80
2018-04-26T20:21:11.446Z,71.60
2018-04-26T20:23:38.883Z,71.80
2018-04-26T20:26:06.757Z,72.00
2018-04-26T20:28:51.192Z,72.00
2018-04-26T20:31:18.707Z,72.00
2018-04-26T20:33:46.164Z,72.10
2018-04-26T20:36:13.908Z,72.10
2018-04-26T20:41:46.738Z,72.20
2018-04-26T20:44:26.342Z,72.30
2018-04-26T20:46:53.806Z,72.40
2018-04-26T20:52:40.173Z,72.40
2018-04-26T20:55:08.465Z,72.60
2018-04-26T21:06:08.276Z,73.10
2018-04-26T21:08:50.217Z,72.70
2018-04-26T21:11:17.773Z,72.70
2018-04-26T21:13:45.233Z,73.50
2018-04-26T21:16:12.688Z,72.80
2018-04-26T21:18:40.264Z,72.90
2018-04-26T21:21:07.737Z,73.00
2018-04-26T21:23:35.208Z,73.10
2018-04-26T21:26:02.683Z,73.10
2018-04-26T21:28:30.953Z,73.00
2018-04-26T21:30:58.784Z,72.90
2018-04-26T21:33:26.234Z,73.10
2018-04-26T21:35:53.676Z,73.20
2018-04-26T21:38:21.511Z,73.10
2018-04-26T21:40:49.731Z,73.20
2018-04-26T21:43:17.197Z,73.10
2018-04-26T21:45:47.136Z,73.10
2018-04-26T21:48:14.598Z,73.20
2018-04-26T21:50:47.893Z,73.40
2018-04-26T21:53:21.099Z,73.30
2018-04-26T21:55:55.304Z,73.30
2018-04-26T21:58:28.391Z,73.20
2018-04-26T22:01:01.657Z,73.50
2018-04-26T22:14:59.969Z,73.40
2018-04-26T22:17:27.485Z,73.40
2018-04-26T22:19:54.945Z,73.50
2018-04-26T22:25:14.784Z,73.60
2018-04-26T22:27:42.479Z,73.50
2018-04-26T22:30:09.936Z,73.70
2018-04-26T22:32:37.404Z,73.60
2018-04-26T22:35:05.064Z,73.70
2018-04-26T22:37:32.528Z,73.70
2018-04-26T22:40:00.074Z,73.70
2018-04-26T22:42:27.728Z,73.90
2018-04-26T22:44:55.204Z,74.00
2018-04-26T22:47:22.765Z,74.00
2018-04-26T22:49:50.488Z,74.20
2018-04-26T22:52:18.714Z,74.20
2018-04-26T22:54:46.164Z,74.10
2018-04-26T22:57:13.670Z,74.20
2018-04-26T22:59:41.912Z,74.00
2018-04-26T23:02:09.377Z,74.00
2018-04-26T23:04:36.873Z,74.10
2018-04-26T23:07:04.315Z,73.90
2018-04-26T23:09:32.528Z,74.30
2018-04-26T23:12:00.172Z,74.10
2018-04-26T23:14:27.628Z,74.10
2018-04-26T23:16:55.090Z,74.00
2018-04-26T23:19:25.176Z,74.00
2018-04-26T23:21:52.649Z,74.00
2018-04-26T23:24:20.881Z,74.20
2018-04-26T23:26:48.428Z,74.10
2018-04-26T23:29:15.899Z,74.10
2018-04-26T23:31:43.410Z,74.10
2018-04-26T23:34:11.255Z,74.10
2018-04-26T23:36:38.794Z,75.00
2018-04-26T23:39:06.233Z,74.50
2018-04-26T23:41:33.900Z,74.40
2018-04-26T23:44:01.379Z,74.40
2018-04-26T23:46:28.905Z,74.40
2018-04-26T23:48:56.391Z,74.40
2018-04-26T23:51:23.889Z,74.30
2018-04-26T23:53:52.213Z,74.40
2018-04-26T23:56:19.703Z,74.20
2018-04-26T23:58:47.201Z,74.30
